Time;durP1;ratioP1;P1;durP2;ratioP2;P2;SDS_P1;SDS_P2;PMS_P1;PMS_P2;Temp;Humidity;BMP_temperature;BMP_pressure;BME280_temperature;BME280_humidity;BME280_pressure;Samples;Min_cycle;Max_cycle;Signal;HPM_P1;HPM_P2
2022/10/22 00:08:04;;;;;;;13.40;7.90;;;14.60;99.90;;;;;;21086172;28;20218;-68
2022/10/22 00:18:06;;;;;;;11.27;8.10;;;14.60;99.90;;;;;;21085517;28;20279;-68
2022/10/22 00:28:07;;;;;;;12.10;7.47;;;14.60;99.90;;;;;;21083989;28;20207;-69
2022/10/22 00:38:09;;;;;;;15.37;7.13;;;14.50;99.90;;;;;;21081159;28;20296;-68
2022/10/22 00:48:18;;;;;;;11.87;6.70;;;14.60;99.90;;;;;;21083197;28;20206;-68
2022/10/22 00:58:23;;;;;;;12.00;6.40;;;14.60;99.90;;;;;;21083260;28;20230;-70
2022/10/22 01:08:44;;;;;;;10.60;6.30;;;14.60;99.90;;;;;;21081695;28;20263;-68
2022/10/22 01:19:17;;;;;;;11.70;5.60;;;14.60;99.90;;;;;;21081301;28;20712;-69
2022/10/22 01:29:32;;;;;;;11.53;6.10;;;14.60;99.90;;;;;;21078197;28;20229;-69
2022/10/22 01:39:35;;;;;;;8.90;5.70;;;14.60;99.90;;;;;;21080364;28;20248;-69
2022/10/22 01:49:45;;;;;;;7.83;5.63;;;14.60;99.90;;;;;;21079174;28;20204;-69
2022/10/22 02:00:06;;;;;;;11.50;5.70;;;14.60;99.90;;;;;;21078765;28;20237;-68
2022/10/22 02:10:09;;;;;;;7.60;5.23;;;14.60;99.90;;;;;;21078996;28;20271;-69
2022/10/22 02:20:21;;;;;;;9.47;5.40;;;14.70;99.90;;;;;;21078162;28;20230;-69
2022/10/22 02:30:23;;;;;;;6.00;4.40;;;14.60;99.90;;;;;;21075647;28;20216;-69
2022/10/22 02:40:26;;;;;;;5.27;4.13;;;14.60;99.90;;;;;;21090858;28;20688;-69
2022/10/22 02:50:27;;;;;;;6.73;4.00;;;14.70;99.90;;;;;;21076231;28;20206;-70
2022/10/22 03:00:29;;;;;;;8.90;4.30;;;14.70;99.90;;;;;;21086209;28;20233;-70
2022/10/22 03:10:31;;;;;;;9.10;3.83;;;14.70;99.90;;;;;;21091910;28;20203;-69
2022/10/22 03:20:32;;;;;;;6.00;2.20;;;14.70;99.90;;;;;;21090401;28;20241;-70
2022/10/22 03:30:35;;;;;;;6.90;2.00;;;14.80;99.90;;;;;;21089387;28;20242;-70
2022/10/22 03:40:37;;;;;;;3.23;1.20;;;14.90;99.90;;;;;;21088821;28;20246;-70
2022/10/22 03:50:39;;;;;;;2.87;1.50;;;14.90;99.90;;;;;;21087782;28;20219;-70
2022/10/22 04:00:40;;;;;;;4.50;1.43;;;15.00;99.90;;;;;;21087052;28;20233;-69
2022/10/22 04:10:49;;;;;;;2.80;1.50;;;15.10;99.90;;;;;;21085492;28;20203;-69
2022/10/22 04:20:51;;;;;;;2.47;1.40;;;15.20;99.90;;;;;;21085392;28;20234;-71
2022/10/22 04:30:53;;;;;;;4.70;1.63;;;15.20;99.90;;;;;;21081914;28;20258;-69
2022/10/22 04:40:55;;;;;;;3.17;1.60;;;15.20;99.90;;;;;;21081704;28;20248;-68
2022/10/22 04:50:57;;;;;;;2.97;1.67;;;15.20;99.90;;;;;;21083649;28;20229;-69
2022/10/22 05:00:59;;;;;;;3.73;2.03;;;15.20;99.90;;;;;;21081574;28;20633;-69
2022/10/22 05:11:13;;;;;;;6.30;2.30;;;15.20;99.90;;;;;;21081664;28;20202;-70
2022/10/22 05:21:17;;;;;;;2.40;1.70;;;15.20;99.90;;;;;;21079927;28;20248;-69
2022/10/22 05:31:20;;;;;;;4.87;1.80;;;15.10;99.90;;;;;;21080342;28;20658;-70
2022/10/22 05:41:26;;;;;;;6.13;2.17;;;15.10;99.90;;;;;;21106985;28;20238;-73
2022/10/22 05:51:30;;;;;;;4.40;2.00;;;15.20;99.90;;;;;;21133802;28;20213;-74
2022/10/22 06:01:34;;;;;;;6.33;2.00;;;15.10;99.90;;;;;;21162374;28;20265;-75
2022/10/22 06:11:35;;;;;;;2.53;1.90;;;15.10;99.90;;;;;;21164480;28;20271;-71
2022/10/22 06:21:38;;;;;;;6.50;3.20;;;14.90;99.90;;;;;;21161954;28;20299;-72
2022/10/22 06:31:39;;;;;;;6.70;2.20;;;14.90;99.90;;;;;;21026523;28;20246;-71
2022/10/22 06:41:41;;;;;;;5.20;2.30;;;14.90;99.90;;;;;;21093748;28;20250;-74
2022/10/22 06:51:43;;;;;;;5.63;2.00;;;14.90;99.90;;;;;;21086976;28;20253;-72
2022/10/22 07:01:44;;;;;;;9.33;2.23;;;15.00;99.90;;;;;;21088826;28;20238;-71
2022/10/22 07:11:46;;;;;;;2.97;1.73;;;15.10;99.90;;;;;;21089019;28;20206;-71
2022/10/22 07:21:48;;;;;;;2.20;1.53;;;15.20;99.90;;;;;;21088742;28;20830;-72
2022/10/22 07:31:49;;;;;;;3.10;1.80;;;15.20;99.90;;;;;;21088144;28;20207;-71
2022/10/22 07:41:52;;;;;;;2.70;1.67;;;15.20;99.90;;;;;;21087749;28;20250;-72
2022/10/22 07:51:53;;;;;;;6.07;2.57;;;15.20;99.90;;;;;;21087924;28;20599;-72
2022/10/22 08:01:55;;;;;;;3.23;2.67;;;15.30;99.90;;;;;;21086342;28;20236;-71
2022/10/22 08:11:57;;;;;;;3.47;1.47;;;15.40;99.90;;;;;;21086115;28;20207;-78
2022/10/22 08:21:58;;;;;;;1.83;1.13;;;15.70;99.90;;;;;;21084186;28;20278;-74
2022/10/22 08:32:01;;;;;;;2.43;1.37;;;15.90;99.90;;;;;;21083744;28;20206;-73
2022/10/22 08:42:18;;;;;;;1.00;1.00;;;16.20;99.90;;;;;;21084500;28;20242;-72
2022/10/22 08:52:21;;;;;;;8.20;3.23;;;16.40;99.90;;;;;;21078730;28;20212;-64
2022/10/22 09:02:50;;;;;;;4.07;1.10;;;16.50;99.90;;;;;;21080461;28;20289;-64
2022/10/22 09:12:52;;;;;;;3.90;1.10;;;16.90;99.90;;;;;;21082570;28;20238;-64
2022/10/22 09:22:56;;;;;;;2.37;1.10;;;17.00;99.90;;;;;;21080862;28;20231;-64
2022/10/22 09:33:05;;;;;;;3.03;0.97;;;17.30;99.90;;;;;;21080567;28;20202;-64
2022/10/22 09:43:11;;;;;;;3.47;1.10;;;17.70;99.90;;;;;;21079176;28;20243;-64
2022/10/22 09:53:24;;;;;;;1.43;1.00;;;17.80;99.90;;;;;;21077554;28;20224;-64
2022/10/22 10:03:31;;;;;;;2.67;1.03;;;18.10;99.90;;;;;;21077675;28;20235;-64
2022/10/22 10:13:57;;;;;;;3.23;1.03;;;18.20;99.90;;;;;;21094789;28;20576;-64
2022/10/22 10:24:13;;;;;;;2.27;1.20;;;18.30;99.90;;;;;;21094778;28;20261;-73
2022/10/22 10:34:36;;;;;;;3.80;1.70;;;18.50;99.60;;;;;;21093394;28;20226;-66
2022/10/22 10:44:55;;;;;;;3.67;1.30;;;18.80;99.00;;;;;;21092492;28;20697;-70
2022/10/22 10:55:20;;;;;;;2.87;1.20;;;19.00;98.80;;;;;;21089214;28;20209;-66
2022/10/22 11:06:00;;;;;;;3.70;1.20;;;19.10;97.10;;;;;;21082418;28;20243;-65
2022/10/22 11:16:36;;;;;;;3.77;1.70;;;19.20;97.00;;;;;;20962453;28;20733;-72
2022/10/22 11:27:15;;;;;;;2.47;1.10;;;19.30;97.00;;;;;;21082035;28;20235;-70
2022/10/22 11:37:18;;;;;;;4.00;1.17;;;19.50;96.80;;;;;;21064040;28;20299;-71
2022/10/22 11:47:24;;;;;;;4.63;2.53;;;19.70;96.20;;;;;;21088106;28;20238;-72
2022/10/22 11:57:37;;;;;;;3.23;1.10;;;19.90;96.20;;;;;;21086630;28;20649;-75
2022/10/22 12:07:58;;;;;;;5.80;1.20;;;20.20;96.20;;;;;;21087656;28;20238;-75
2022/10/22 12:18:04;;;;;;;2.17;1.10;;;20.50;95.80;;;;;;21085785;28;20678;-75
2022/10/22 12:28:10;;;;;;;9.90;1.27;;;20.60;95.30;;;;;;21084673;28;20258;-76
2022/10/22 12:38:19;;;;;;;5.63;1.23;;;20.60;95.30;;;;;;21080847;28;20231;-74
2022/10/22 12:48:23;;;;;;;3.73;1.30;;;20.60;95.20;;;;;;21083388;28;20747;-75
2022/10/22 12:58:28;;;;;;;1.43;0.90;;;20.40;95.30;;;;;;21082622;28;20234;-74
2022/10/22 13:08:33;;;;;;;3.10;1.23;;;20.40;95.60;;;;;;21081912;28;20594;-71
2022/10/22 13:18:34;;;;;;;2.40;1.00;;;20.30;95.30;;;;;;21079827;28;20260;-72
2022/10/22 13:28:36;;;;;;;1.73;1.00;;;20.40;95.50;;;;;;21102932;28;20287;-71
2022/10/22 13:38:38;;;;;;;1.37;1.00;;;20.50;95.50;;;;;;21096895;28;20274;-72
2022/10/22 13:48:40;;;;;;;1.87;1.00;;;20.30;95.50;;;;;;21147922;28;20548;-71
2022/10/22 13:58:43;;;;;;;2.13;1.20;;;20.30;95.30;;;;;;21070028;28;20646;-71
2022/10/22 14:08:49;;;;;;;3.23;1.57;;;20.20;95.50;;;;;;21078347;28;20276;-71
2022/10/22 14:18:51;;;;;;;11.53;1.40;;;20.30;95.80;;;;;;21074080;28;20683;-72
2022/10/22 14:28:53;;;;;;;2.23;1.30;;;19.90;95.60;;;;;;21074680;28;20716;-72
2022/10/22 14:39:12;;;;;;;2.80;1.27;;;19.80;96.10;;;;;;21075007;28;20234;-73
2022/10/22 14:49:14;;;;;;;2.97;1.27;;;20.20;96.00;;;;;;21076005;28;20547;-72
2022/10/22 14:59:16;;;;;;;2.93;1.10;;;20.50;95.60;;;;;;21092608;28;20284;-72
2022/10/22 15:09:17;;;;;;;4.07;1.27;;;21.60;94.10;;;;;;21091592;28;20199;-71
2022/10/22 15:19:19;;;;;;;4.50;1.03;;;21.00;93.90;;;;;;21090875;28;20234;-73
2022/10/22 15:29:21;;;;;;;12.83;1.53;;;20.50;93.90;;;;;;21089487;28;20253;-72
2022/10/22 15:39:23;;;;;;;4.70;1.47;;;20.10;93.80;;;;;;21089055;28;20238;-71
2022/10/22 15:49:26;;;;;;;3.07;1.10;;;19.60;94.10;;;;;;21087817;28;20228;-76
2022/10/22 15:59:28;;;;;;;7.17;1.80;;;19.30;94.50;;;;;;21086891;28;20692;-74
2022/10/22 16:09:30;;;;;;;6.93;4.10;;;19.00;94.80;;;;;;21085255;28;20210;-70
2022/10/22 16:19:32;;;;;;;6.10;3.10;;;18.80;95.50;;;;;;21082938;28;20230;-70
2022/10/22 16:29:36;;;;;;;17.40;3.00;;;18.50;96.20;;;;;;21082898;28;20251;-72
2022/10/22 16:39:38;;;;;;;6.33;1.83;;;18.10;96.70;;;;;;21082915;28;20271;-71
2022/10/22 16:49:39;;;;;;;14.03;2.77;;;18.10;97.00;;;;;;21081860;28;20618;-72
2022/10/22 16:59:41;;;;;;;5.80;2.43;;;17.90;97.20;;;;;;21080328;28;20619;-71
2022/10/22 17:09:43;;;;;;;5.60;2.57;;;17.70;97.60;;;;;;21080007;28;20204;-74
2022/10/22 17:19:44;;;;;;;11.17;2.67;;;17.30;97.90;;;;;;21079550;28;20231;-71
2022/10/22 17:29:46;;;;;;;10.03;2.60;;;17.20;98.60;;;;;;21079958;28;20209;-72
2022/10/22 17:39:48;;;;;;;9.77;3.47;;;16.80;99.10;;;;;;21078550;28;20238;-75
2022/10/22 17:49:49;;;;;;;15.63;4.07;;;16.80;99.50;;;;;;21078052;28;20249;-73
2022/10/22 17:59:51;;;;;;;13.53;5.10;;;16.50;99.80;;;;;;21077645;28;20270;-74
2022/10/22 18:09:53;;;;;;;10.13;4.67;;;16.40;99.90;;;;;;21077854;28;20199;-71
2022/10/22 18:19:54;;;;;;;14.10;5.57;;;16.30;99.90;;;;;;21072881;28;20237;-72
2022/10/22 18:29:56;;;;;;;14.60;5.60;;;16.20;99.90;;;;;;21080498;28;20259;-72
2022/10/22 18:39:57;;;;;;;13.00;5.97;;;16.00;99.90;;;;;;21089961;28;20269;-74
2022/10/22 18:49:59;;;;;;;16.90;9.03;;;15.80;99.90;;;;;;21089996;28;20230;-74
2022/10/22 19:00:01;;;;;;;18.90;8.63;;;15.60;99.90;;;;;;21090419;28;20219;-69
2022/10/22 19:10:03;;;;;;;10.70;6.13;;;15.50;99.90;;;;;;21089507;28;20261;-73
2022/10/22 19:20:05;;;;;;;19.13;7.20;;;15.40;99.90;;;;;;21087290;28;20253;-75
2022/10/22 19:30:07;;;;;;;11.67;7.20;;;15.30;99.90;;;;;;21087117;28;20232;-74
2022/10/22 19:40:10;;;;;;;14.13;7.00;;;15.20;99.90;;;;;;21084477;28;20251;-74
2022/10/22 19:50:11;;;;;;;12.80;6.80;;;15.00;99.90;;;;;;21084524;28;20653;-73
2022/10/22 20:00:13;;;;;;;14.07;7.60;;;14.90;99.90;;;;;;21084922;28;20254;-74
2022/10/22 20:10:15;;;;;;;16.90;9.37;;;14.90;99.90;;;;;;21084115;28;20689;-73
2022/10/22 20:20:16;;;;;;;18.43;9.87;;;14.70;99.90;;;;;;21081157;28;20265;-73
2022/10/22 20:30:19;;;;;;;14.47;7.50;;;14.60;99.90;;;;;;21078923;28;20259;-75
2022/10/22 20:40:24;;;;;;;13.07;5.77;;;14.60;99.90;;;;;;21081978;28;20645;-73
2022/10/22 20:50:30;;;;;;;19.57;7.00;;;14.50;99.90;;;;;;21080250;28;20901;-75
2022/10/22 21:00:34;;;;;;;13.57;6.70;;;14.50;99.90;;;;;;21081961;28;20280;-75
2022/10/22 21:10:36;;;;;;;11.10;6.37;;;14.40;99.90;;;;;;21079625;28;20649;-72
2022/10/22 21:20:38;;;;;;;9.73;6.03;;;14.30;99.90;;;;;;21079205;28;20235;-75
2022/10/22 21:30:44;;;;;;;13.17;5.70;;;14.20;99.90;;;;;;21078750;28;20209;-74
2022/10/22 21:40:47;;;;;;;13.23;5.63;;;14.20;99.90;;;;;;21078082;28;20697;-73
2022/10/22 21:50:49;;;;;;;10.87;6.47;;;14.20;99.90;;;;;;21079740;28;20206;-76
2022/10/22 22:00:54;;;;;;;16.77;6.57;;;14.20;99.90;;;;;;21078227;28;20240;-73
2022/10/22 22:11:11;;;;;;;10.90;5.70;;;14.10;99.90;;;;;;21077220;28;20292;-74
2022/10/22 22:21:15;;;;;;;9.27;5.40;;;14.10;99.90;;;;;;21076403;28;20239;-73
2022/10/22 22:31:26;;;;;;;11.20;5.90;;;14.00;99.90;;;;;;21077322;28;20210;-72
2022/10/22 22:41:28;;;;;;;14.27;5.57;;;13.90;99.90;;;;;;21077892;28;20609;-74
2022/10/22 22:51:30;;;;;;;15.97;6.53;;;13.80;99.90;;;;;;21077453;28;20213;-75
2022/10/22 23:01:34;;;;;;;20.63;6.80;;;13.80;99.90;;;;;;21076818;28;20237;-75
2022/10/22 23:11:37;;;;;;;14.40;6.60;;;13.70;99.90;;;;;;21076748;28;20203;-73
2022/10/22 23:21:42;;;;;;;12.57;5.37;;;13.60;99.90;;;;;;21091261;28;20234;-73
2022/10/22 23:31:45;;;;;;;15.83;5.33;;;13.60;99.90;;;;;;21090017;28;20211;-73
2022/10/22 23:41:46;;;;;;;10.23;5.10;;;13.50;99.90;;;;;;21088958;28;20270;-72
2022/10/22 23:51:48;;;;;;;10.10;4.70;;;13.40;99.90;;;;;;21088904;28;20260;-74
